Time;durP1;ratioP1;P1;durP2;ratioP2;P2;SDS_P1;SDS_P2;PMS_P1;PMS_P2;Temp;Humidity;BMP_temperature;BMP_pressure;BME280_temperature;BME280_humidity;BME280_pressure;Samples;Min_cycle;Max_cycle;Signal;HPM_P1;HPM_P2
2021/03/25 00:01:23;;;;;;;7.97;2.75;;;;;;;-1.28;83.94;100625.50;1719622;83;21547;-41
2021/03/25 00:03:51;;;;;;;3.27;2.62;;;;;;;-1.31;83.73;100630.95;1719634;83;21375;-43
2021/03/25 00:06:19;;;;;;;3.90;2.60;;;;;;;-1.33;83.50;100627.49;1719609;82;21017;-42
2021/03/25 00:08:46;;;;;;;5.17;3.30;;;;;;;-1.35;83.36;100623.20;1719593;83;21078;-42
2021/03/25 00:11:14;;;;;;;10.03;2.50;;;;;;;-1.34;83.08;100618.15;1719542;83;21030;-42
2021/03/25 00:13:42;;;;;;;6.17;3.30;;;;;;;-1.36;82.71;100616.39;1719740;82;21477;-42
2021/03/25 00:16:11;;;;;;;3.77;2.60;;;;;;;-1.36;82.72;100618.51;1719586;83;20915;-43
2021/03/25 00:18:39;;;;;;;5.37;2.92;;;;;;;-1.38;82.67;100609.13;1719534;83;20994;-43
2021/03/25 00:21:09;;;;;;;3.65;2.83;;;;;;;-1.39;82.57;100612.06;1719608;82;21060;-43
2021/03/25 00:23:38;;;;;;;7.03;2.87;;;;;;;-1.38;82.42;100609.13;1719572;83;21066;-42
2021/03/25 00:26:05;;;;;;;5.08;2.95;;;;;;;-1.40;82.38;100613.27;1719624;82;21606;-43
2021/03/25 00:28:33;;;;;;;4.35;3.00;;;;;;;-1.40;82.37;100602.72;1719570;83;21212;-42
2021/03/25 00:31:02;;;;;;;5.45;2.92;;;;;;;-1.42;82.34;100605.61;1719480;82;21046;-43
2021/03/25 00:33:29;;;;;;;4.35;3.00;;;;;;;-1.44;82.41;100599.63;1711270;83;21023;-43
2021/03/25 00:35:57;;;;;;;6.20;3.58;;;;;;;-1.43;82.34;100606.81;1706748;84;21051;-43
2021/03/25 00:38:25;;;;;;;3.35;2.80;;;;;;;-1.45;82.31;100607.63;1706851;83;21034;-44
2021/03/25 00:40:53;;;;;;;3.70;3.08;;;;;;;-1.47;82.38;100603.33;1706825;84;21276;-43
2021/03/25 00:43:22;;;;;;;4.03;3.10;;;;;;;-1.46;82.32;100604.63;1706610;82;21075;-43
2021/03/25 00:45:50;;;;;;;5.20;2.60;;;;;;;-1.47;82.34;100597.83;1706253;83;21165;-43
2021/03/25 00:48:20;;;;;;;6.58;3.58;;;;;;;-1.48;82.22;100593.56;1706235;83;20960;-43
2021/03/25 00:50:52;;;;;;;3.58;3.27;;;;;;;-1.50;82.28;100595.62;1706327;84;21533;-43
2021/03/25 00:53:26;;;;;;;4.72;2.80;;;;;;;-1.52;82.29;100592.13;1706298;83;21385;-43
2021/03/25 00:55:54;;;;;;;4.80;2.80;;;;;;;-1.52;82.39;100599.36;1706212;84;20991;-42
2021/03/25 00:58:22;;;;;;;6.37;3.20;;;;;;;-1.53;82.40;100590.02;1706246;82;20940;-42
2021/03/25 01:00:51;;;;;;;4.62;3.12;;;;;;;-1.56;82.45;100595.00;1706244;82;20979;-42
2021/03/25 01:03:21;;;;;;;4.92;3.52;;;;;;;-1.57;82.57;100593.27;1706272;84;21082;-42
2021/03/25 01:05:49;;;;;;;6.97;3.42;;;;;;;-1.60;82.67;100591.91;1706260;83;21562;-43
2021/03/25 01:08:33;;;;;;;6.72;3.50;;;;;;;-1.62;82.90;100584.64;1706208;84;21047;-42
2021/03/25 01:11:15;;;;;;;4.97;3.33;;;;;;;-1.65;83.14;100591.74;1705993;84;20967;-43
2021/03/25 01:13:50;;;;;;;8.98;4.30;;;;;;;-1.65;83.16;100591.74;1706195;84;21586;-42
2021/03/25 01:16:28;;;;;;;8.08;3.20;;;;;;;-1.68;83.37;100584.41;1706252;84;21027;-42
2021/03/25 01:18:57;;;;;;;6.58;4.03;;;;;;;-1.72;83.60;100590.20;1706289;84;21415;-42
2021/03/25 01:21:27;;;;;;;8.68;3.75;;;;;;;-1.75;83.75;100587.17;1706308;83;21596;-42
2021/03/25 01:23:56;;;;;;;9.10;3.92;;;;;;;-1.76;83.86;100584.19;1706210;83;21042;-43
2021/03/25 01:26:25;;;;;;;5.58;3.72;;;;;;;-1.80;84.08;100581.94;1706111;84;21054;-42
2021/03/25 01:28:53;;;;;;;4.60;3.60;;;;;;;-1.82;84.18;100580.14;1706285;84;20940;-42
2021/03/25 01:31:22;;;;;;;5.00;4.15;;;;;;;-1.84;84.36;100576.30;1706278;84;21214;-42
2021/03/25 01:33:51;;;;;;;5.33;3.22;;;;;;;-1.81;84.37;100575.52;1706105;83;21014;-42
2021/03/25 01:36:21;;;;;;;3.98;3.58;;;;;;;-1.82;84.50;100576.33;1706316;84;20948;-42
2021/03/25 01:38:51;;;;;;;7.08;4.42;;;;;;;-1.82;84.57;100573.80;1706183;84;20951;-42
2021/03/25 01:41:22;;;;;;;7.05;3.83;;;;;;;-1.84;84.58;100573.77;1686156;84;21110;-42
2021/03/25 01:43:51;;;;;;;8.23;4.72;;;;;;;-1.84;84.66;100566.53;1706285;82;22259;-42
2021/03/25 01:46:36;;;;;;;4.70;3.98;;;;;;;-1.85;84.60;100569.50;1706241;84;21042;-42
2021/03/25 01:49:10;;;;;;;7.15;4.10;;;;;;;-1.85;84.66;100574.97;1706267;82;21453;-42
2021/03/25 01:51:51;;;;;;;8.23;4.70;;;;;;;-1.86;84.57;100569.05;1706176;83;20999;-43
2021/03/25 01:54:40;;;;;;;5.80;4.10;;;;;;;-1.86;84.51;100574.12;1706294;83;21091;-43
2021/03/25 01:57:34;;;;;;;6.25;4.28;;;;;;;-1.85;84.57;100572.42;1706230;83;21003;-43
2021/03/25 02:00:20;;;;;;;7.55;4.17;;;;;;;-1.84;84.44;100575.03;1706206;84;20980;-41
2021/03/25 02:03:32;;;;;;;7.67;4.05;;;;;;;-1.84;84.32;100572.88;1706284;83;21016;-41
2021/03/25 02:06:24;;;;;;;5.00;3.05;;;;;;;-1.84;84.21;100572.49;1697540;83;21042;-42
2021/03/25 02:09:04;;;;;;;6.67;4.03;;;;;;;-1.83;84.21;100575.87;1706313;84;20940;-42
2021/03/25 02:11:52;;;;;;;8.18;4.30;;;;;;;-1.83;84.16;100575.87;1704868;83;21663;-42
2021/03/25 02:14:50;;;;;;;9.93;4.37;;;;;;;-1.83;83.98;100576.75;1681770;84;21074;-43
2021/03/25 02:17:46;;;;;;;10.80;4.53;;;;;;;-1.83;83.96;100575.87;1706241;84;21000;-43
2021/03/25 02:21:07;;;;;;;8.13;4.10;;;;;;;-1.82;83.79;100575.95;1689441;84;20967;-43
2021/03/25 02:23:50;;;;;;;5.95;4.05;;;;;;;-1.86;83.92;100575.39;1644270;86;20972;-42
2021/03/25 02:26:24;;;;;;;9.05;4.45;;;;;;;-1.87;84.10;100581.27;1653212;86;21385;-43
2021/03/25 02:29:18;;;;;;;9.30;4.15;;;;;;;-1.91;84.24;100579.03;1653283;86;21079;-42
2021/03/25 02:31:50;;;;;;;5.28;4.08;;;;;;;-1.94;84.33;100575.11;1653192;86;21628;-42
2021/03/25 02:34:26;;;;;;;10.55;5.15;;;;;;;-1.93;84.44;100574.30;1653093;85;21094;-42
2021/03/25 02:37:11;;;;;;;7.87;4.70;;;;;;;-1.94;84.58;100571.70;1653251;86;20973;-42
2021/03/25 02:39:52;;;;;;;8.85;4.58;;;;;;;-1.98;84.64;100572.41;1653360;86;22296;-42
2021/03/25 02:42:44;;;;;;;7.08;4.17;;;;;;;-2.00;84.75;100569.84;1653360;85;21055;-42
2021/03/25 02:45:31;;;;;;;12.53;4.92;;;;;;;-2.00;84.85;100574.91;1653156;86;21023;-42
2021/03/25 02:48:11;;;;;;;9.93;5.10;;;;;;;-2.00;84.84;100577.84;1634112;86;21035;-43
2021/03/25 02:50:47;;;;;;;4.80;4.20;;;;;;;-2.00;84.92;100574.91;1652949;86;20924;-42
2021/03/25 02:53:27;;;;;;;7.25;4.25;;;;;;;-2.03;85.08;100578.20;1653301;86;22299;-42
2021/03/25 02:56:00;;;;;;;10.55;5.33;;;;;;;-2.04;85.27;100579.39;1652765;86;20996;-42
2021/03/25 02:58:29;;;;;;;9.53;5.50;;;;;;;-2.05;85.39;100581.47;1653369;86;21017;-42
2021/03/25 03:01:05;;;;;;;7.12;4.53;;;;;;;-2.08;85.56;100576.30;1653122;86;21039;-42
2021/03/25 03:03:51;;;;;;;11.10;4.85;;;;;;;-2.08;85.64;100575.91;1653225;86;21582;-42
2021/03/25 03:06:29;;;;;;;11.90;5.40;;;;;;;-2.09;85.77;100576.72;1650655;86;21416;-42
2021/03/25 03:08:59;;;;;;;7.25;3.08;;;;;;;-2.09;85.91;100575.84;1652570;86;21058;-43
2021/03/25 03:11:37;;;;;;;9.40;4.72;;;;;;;-2.11;85.95;100570.73;1653114;85;21043;-43
2021/03/25 03:14:09;;;;;;;6.83;4.65;;;;;;;-2.11;86.08;100574.53;1653171;85;21604;-41
2021/03/25 03:16:45;;;;;;;4.80;4.03;;;;;;;-2.11;86.17;100579.61;1653236;86;21683;-42
2021/03/25 03:19:27;;;;;;;10.20;4.78;;;;;;;-2.13;86.26;100580.35;1653176;86;22169;-42
2021/03/25 03:22:02;;;;;;;9.78;4.55;;;;;;;-2.11;86.36;100581.27;1650847;86;21083;-46
2021/03/25 03:24:38;;;;;;;7.58;4.78;;;;;;;-2.11;86.37;100578.34;1651211;85;21008;-43
2021/03/25 03:27:36;;;;;;;6.92;4.60;;;;;;;-2.10;86.31;100581.34;1650980;86;20964;-42
2021/03/25 03:30:10;;;;;;;5.87;4.85;;;;;;;-2.11;86.36;100581.27;1648806;86;21079;-43
2021/03/25 03:32:56;;;;;;;16.00;4.45;;;;;;;-2.11;86.39;100578.34;1653003;86;21382;-43
2021/03/25 03:35:33;;;;;;;6.80;5.00;;;;;;;-2.09;86.36;100572.03;1653235;86;21635;-41
2021/03/25 03:38:06;;;;;;;8.75;4.50;;;;;;;-2.09;86.37;100577.11;1653178;86;20972;-43
2021/03/25 03:40:41;;;;;;;7.80;4.75;;;;;;;-2.09;86.36;100575.45;1652862;86;21063;-43
2021/03/25 03:43:13;;;;;;;4.95;3.92;;;;;;;-2.06;86.29;100576.82;1653227;85;20976;-43
2021/03/25 03:46:00;;;;;;;6.65;4.37;;;;;;;-2.04;86.13;100578.12;1653135;86;21355;-43
2021/03/25 03:48:43;;;;;;;5.90;4.80;;;;;;;-2.03;85.98;100570.58;1653431;85;21817;-43
2021/03/25 03:51:34;;;;;;;10.70;4.17;;;;;;;-1.97;85.68;100571.59;1653125;86;21494;-43
2021/03/25 03:54:03;;;;;;;6.90;4.33;;;;;;;-1.95;85.25;100567.05;1634162;86;20936;-43
2021/03/25 03:57:01;;;;;;;8.55;5.65;;;;;;;-1.92;84.99;100569.69;1634150;86;21496;-43
2021/03/25 04:00:08;;;;;;;9.48;4.65;;;;;;;-1.89;84.78;100568.52;1653164;86;21389;-42
2021/03/25 04:02:44;;;;;;;13.38;5.47;;;;;;;-1.84;84.29;100573.77;1652459;86;21036;-42
2021/03/25 04:05:34;;;;;;;14.00;4.55;;;;;;;-1.83;83.98;100569.14;1653122;86;20992;-42
2021/03/25 04:08:12;;;;;;;7.90;4.50;;;;;;;-1.82;83.91;100567.45;1651742;86;22134;-41
2021/03/25 04:10:52;;;;;;;8.70;5.37;;;;;;;-1.77;83.84;100575.69;1889905;76;23041;-41
2021/03/25 04:13:29;;;;;;;9.05;4.50;;;;;;;-1.79;83.79;100571.36;1860536;77;20990;-42
2021/03/25 04:15:57;;;;;;;11.20;4.72;;;;;;;-1.78;83.81;100580.31;1861002;77;22245;-41
2021/03/25 04:18:43;;;;;;;8.60;4.40;;;;;;;-1.78;83.76;100581.58;1860719;77;20997;-42
2021/03/25 04:21:33;;;;;;;8.28;5.42;;;;;;;-1.76;83.86;100587.56;1727911;81;21079;-41
2021/03/25 04:24:05;;;;;;;6.67;4.80;;;;;;;-1.77;83.96;100583.30;1860650;77;21001;-42
2021/03/25 04:26:44;;;;;;;8.75;5.25;;;;;;;-1.77;84.15;100584.58;1860757;77;20966;-42
2021/03/25 04:29:17;;;;;;;12.78;5.00;;;;;;;-1.74;84.22;100585.09;1860060;77;21359;-42
2021/03/25 04:31:44;;;;;;;11.22;5.20;;;;;;;-1.74;84.32;100588.91;1859983;77;21515;-42
2021/03/25 04:34:13;;;;;;;8.60;4.97;;;;;;;-1.75;84.49;100590.98;1860686;77;20974;-43
2021/03/25 04:36:42;;;;;;;12.63;6.00;;;;;;;-1.75;84.67;100596.06;1860767;77;20962;-42
2021/03/25 04:39:12;;;;;;;10.90;5.65;;;;;;;-1.72;84.86;100598.70;1860756;77;21565;-42
2021/03/25 04:41:41;;;;;;;12.88;5.22;;;;;;;-1.74;84.96;100592.70;1860748;77;21523;-41
2021/03/25 04:44:20;;;;;;;7.53;4.53;;;;;;;-1.76;85.15;100589.26;1832327;77;21029;-42
2021/03/25 04:47:05;;;;;;;10.45;5.20;;;;;;;-1.75;85.22;100593.52;1827019;78;20938;-42
2021/03/25 04:49:38;;;;;;;14.35;6.15;;;;;;;-1.76;85.34;100589.26;1827213;78;26727;-43
2021/03/25 04:52:10;;;;;;;11.63;5.95;;;;;;;-1.75;85.46;100593.10;1826326;78;21037;-43
2021/03/25 04:54:38;;;;;;;13.48;4.90;;;;;;;-1.72;85.57;100590.20;1826727;78;21205;-41
2021/03/25 04:57:26;;;;;;;8.98;4.78;;;;;;;-1.70;85.71;100583.50;1826895;78;21332;-42
2021/03/25 04:59:56;;;;;;;6.45;4.35;;;;;;;-1.65;85.87;100587.93;1796062;78;20934;-42
2021/03/25 05:02:24;;;;;;;8.78;5.12;;;;;;;-1.63;85.99;100595.62;1826962;78;21009;-42
2021/03/25 05:04:55;;;;;;;7.37;4.85;;;;;;;-1.64;85.99;100593.47;1827030;78;20942;-42
2021/03/25 05:07:28;;;;;;;12.05;6.37;;;;;;;-1.61;86.11;100601.61;1796118;78;21372;-43
2021/03/25 05:09:57;;;;;;;13.78;6.17;;;;;;;-1.59;86.12;100595.75;1825692;78;21049;-41
2021/03/25 05:12:25;;;;;;;8.50;5.17;;;;;;;-1.56;86.19;100597.93;1824962;78;21010;-42
2021/03/25 05:14:58;;;;;;;9.83;6.10;;;;;;;-1.54;86.11;100601.38;1824918;78;20930;-42
2021/03/25 05:17:50;;;;;;;11.38;5.58;;;;;;;-1.52;86.13;100607.38;1823548;78;21009;-42
2021/03/25 05:20:45;;;;;;;11.25;6.00;;;;;;;-1.52;86.13;100600.63;1824934;78;22344;-42
2021/03/25 05:23:27;;;;;;;9.80;5.92;;;;;;;-1.49;86.18;100599.87;1824449;78;21568;-42
2021/03/25 05:26:08;;;;;;;10.68;5.40;;;;;;;-1.48;86.20;100597.80;1824352;78;21005;-42
2021/03/25 05:28:41;;;;;;;8.00;5.00;;;;;;;-1.47;86.15;100601.64;1824333;78;20993;-42
2021/03/25 05:31:12;;;;;;;8.58;5.40;;;;;;;-1.43;86.26;100603.01;1824353;78;20930;-42
2021/03/25 05:33:40;;;;;;;9.30;5.92;;;;;;;-1.41;86.12;100606.45;1824297;78;21236;-43
2021/03/25 05:36:11;;;;;;;12.63;6.25;;;;;;;-1.40;86.18;100608.19;1824373;78;21496;-43
2021/03/25 05:38:39;;;;;;;8.90;5.70;;;;;;;-1.36;86.08;100603.27;1824419;78;20939;-43
2021/03/25 05:41:33;;;;;;;8.05;5.15;;;;;;;-1.35;86.05;100608.80;1824273;78;21073;-42
2021/03/25 05:44:26;;;;;;;9.95;6.08;;;;;;;-1.32;86.05;100611.86;1824323;77;20997;-41
2021/03/25 05:47:24;;;;;;;11.65;5.47;;;;;;;-1.28;85.99;100617.49;1824100;78;21436;-43
2021/03/25 05:50:34;;;;;;;10.88;5.55;;;;;;;-1.26;85.78;100620.94;1824222;78;21046;-43
2021/03/25 05:53:19;;;;;;;8.85;5.87;;;;;;;-1.26;85.84;100622.22;1824382;78;21013;-43
2021/03/25 05:56:19;;;;;;;11.28;5.53;;;;;;;-1.19;85.81;100627.94;1824386;78;20942;-43
2021/03/25 05:58:57;;;;;;;13.93;5.85;;;;;;;-1.14;85.75;100618.33;1807210;78;20986;-43
2021/03/25 06:01:45;;;;;;;12.37;5.25;;;;;;;-1.08;85.70;100623.63;1824390;78;21732;-42
2021/03/25 06:04:31;;;;;;;6.60;5.40;;;;;;;-1.03;85.48;100624.63;1824315;78;21748;-43
2021/03/25 06:07:07;;;;;;;8.45;5.22;;;;;;;-1.02;85.39;100623.81;1824485;78;21002;-41
2021/03/25 06:10:03;;;;;;;7.75;5.65;;;;;;;-0.97;85.43;100621.43;1824881;78;20978;-43
2021/03/25 06:13:05;;;;;;;10.28;6.30;;;;;;;-0.94;85.31;100622.37;1826385;78;20985;-42
2021/03/25 06:15:53;;;;;;;9.35;5.50;;;;;;;-0.92;85.29;100623.28;1826366;78;21372;-42
2021/03/25 06:18:43;;;;;;;7.03;5.05;;;;;;;-0.84;85.30;100623.95;1826338;78;21009;-42
2021/03/25 06:21:52;;;;;;;9.15;5.58;;;;;;;-0.73;85.35;100623.86;1826310;78;20989;-43
2021/03/25 06:24:37;;;;;;;8.08;5.60;;;;;;;-0.64;85.10;100629.63;1826346;78;21097;-43
2021/03/25 06:27:30;;;;;;;6.97;4.60;;;;;;;-0.61;84.81;100618.28;1826243;78;21607;-42
2021/03/25 06:30:02;;;;;;;10.72;5.80;;;;;;;-0.54;84.48;100623.15;1826297;78;21328;-42
2021/03/25 06:33:02;;;;;;;10.43;6.05;;;;;;;-0.52;84.39;100622.78;1826238;78;21073;-42
2021/03/25 06:35:54;;;;;;;8.13;5.37;;;;;;;-0.43;84.45;100623.04;1795092;78;21069;-43
2021/03/25 06:38:25;;;;;;;10.10;5.62;;;;;;;-0.37;84.00;100623.63;1826261;78;21017;-42
2021/03/25 06:41:23;;;;;;;10.93;6.17;;;;;;;-0.31;83.94;100625.95;1826263;78;20938;-42
2021/03/25 06:44:05;;;;;;;8.23;5.65;;;;;;;-0.19;83.73;100626.72;1822881;76;22699;-42
2021/03/25 06:46:38;;;;;;;8.45;5.72;;;;;;;-0.18;83.75;100631.38;1785884;80;21448;-42
2021/03/25 06:49:28;;;;;;;10.93;5.70;;;;;;;-0.05;83.55;100638.55;1785588;80;21350;-42
2021/03/25 06:51:58;;;;;;;10.78;5.95;;;;;;;0.03;83.10;100634.08;1785600;80;21582;-42
2021/03/25 06:54:26;;;;;;;9.88;5.90;;;;;;;-0.05;83.07;100636.02;1727117;80;21448;-43
2021/03/25 06:56:56;;;;;;;9.60;6.00;;;;;;;0.04;83.30;100637.08;1785626;79;21010;-43
2021/03/25 06:59:34;;;;;;;9.30;5.05;;;;;;;0.17;83.11;100642.97;1785632;80;21002;-43
2021/03/25 07:02:29;;;;;;;12.18;6.20;;;;;;;0.26;82.81;100642.36;1785541;80;21269;-43
2021/03/25 07:04:59;;;;;;;11.73;5.40;;;;;;;0.35;82.49;100638.77;1785692;80;21069;-44
2021/03/25 07:07:35;;;;;;;8.50;5.35;;;;;;;0.38;82.06;100644.34;1785597;80;20891;-44
2021/03/25 07:10:05;;;;;;;15.93;6.10;;;;;;;0.39;81.66;100645.67;1785558;79;20974;-43
2021/03/25 07:12:41;;;;;;;12.10;5.83;;;;;;;0.38;81.12;100645.22;1785645;80;20994;-44
2021/03/25 07:15:13;;;;;;;9.53;5.97;;;;;;;0.42;80.79;100647.45;1785744;79;21359;-42
2021/03/25 07:17:42;;;;;;;13.28;5.70;;;;;;;0.42;80.49;100649.99;1756164;80;21049;-43
2021/03/25 07:20:35;;;;;;;10.32;5.87;;;;;;;0.49;79.91;100648.45;1785583;80;21471;-43
2021/03/25 07:23:13;;;;;;;9.48;5.62;;;;;;;0.51;79.73;100654.05;1785475;80;21601;-43
2021/03/25 07:25:47;;;;;;;9.65;5.80;;;;;;;0.55;79.55;100643.53;1785538;80;20974;-43
2021/03/25 07:28:22;;;;;;;7.83;5.25;;;;;;;0.67;79.20;100650.63;1785602;79;21355;-43
2021/03/25 07:30:58;;;;;;;9.28;5.65;;;;;;;0.73;78.56;100648.62;1785516;79;20931;-43
2021/03/25 07:33:29;;;;;;;13.70;6.22;;;;;;;0.74;77.76;100646.13;1785494;80;20978;-44
2021/03/25 07:36:13;;;;;;;19.05;6.83;;;;;;;0.70;76.82;100651.98;1785610;80;21480;-43
2021/03/25 07:38:41;;;;;;;10.65;6.40;;;;;;;0.64;76.57;100653.95;1785596;80;21104;-43
2021/03/25 07:41:23;;;;;;;13.98;6.58;;;;;;;0.55;76.44;100657.12;1785503;79;21193;-43
2021/03/25 07:44:26;;;;;;;11.85;6.47;;;;;;;0.49;76.77;100655.69;1785345;79;21191;-44
2021/03/25 07:46:57;;;;;;;12.25;6.15;;;;;;;0.52;77.06;100659.59;1785435;79;21041;-43
2021/03/25 07:49:32;;;;;;;13.65;6.05;;;;;;;0.57;77.03;100658.02;1785520;79;21065;-43
2021/03/25 07:52:06;;;;;;;13.85;5.83;;;;;;;0.60;77.10;100663.61;1785577;80;20919;-43
2021/03/25 07:54:39;;;;;;;10.48;6.22;;;;;;;0.62;77.07;100660.69;1785411;79;21280;-43
2021/03/25 07:57:11;;;;;;;9.40;6.42;;;;;;;0.59;77.20;100657.19;1784990;80;21543;-44
2021/03/25 07:59:53;;;;;;;11.40;6.08;;;;;;;0.61;77.35;100662.79;1784984;80;21148;-44
2021/03/25 08:02:37;;;;;;;10.45;5.67;;;;;;;0.66;77.39;100665.47;1784896;80;21034;-43
2021/03/25 08:05:30;;;;;;;8.70;5.85;;;;;;;0.68;77.22;100660.00;1784976;80;21113;-42
2021/03/25 08:08:01;;;;;;;8.78;5.53;;;;;;;0.67;77.09;100668.03;1784976;80;21201;-43
2021/03/25 08:10:41;;;;;;;14.13;6.42;;;;;;;0.69;77.33;100670.21;1784859;80;21065;-43
2021/03/25 08:13:29;;;;;;;8.23;5.92;;;;;;;0.78;77.01;100668.73;1785004;80;21412;-44
2021/03/25 08:16:08;;;;;;;14.87;6.30;;;;;;;0.78;76.81;100667.03;1784913;80;21276;-44
2021/03/25 08:19:21;;;;;;;13.93;6.47;;;;;;;0.78;76.84;100668.31;1785092;80;21563;-42
2021/03/25 08:22:26;;;;;;;12.78;6.25;;;;;;;0.80;77.08;100674.31;1784884;79;21001;-44
2021/03/25 08:25:33;;;;;;;10.18;6.03;;;;;;;0.84;77.13;100677.37;1784855;80;20951;-44
2021/03/25 08:28:46;;;;;;;7.08;5.45;;;;;;;0.79;76.95;100677.68;1784971;80;21077;-44
2021/03/25 08:31:31;;;;;;;8.88;5.37;;;;;;;0.73;77.24;100681.36;1784920;79;20990;-44
2021/03/25 08:34:20;;;;;;;10.40;6.12;;;;;;;0.74;77.05;100679.66;1785193;80;21496;-43
2021/03/25 08:37:01;;;;;;;10.43;5.40;;;;;;;0.71;77.23;100688.95;1784954;80;21387;-43
2021/03/25 08:39:42;;;;;;;9.15;6.22;;;;;;;0.68;77.38;100685.48;1784903;80;21021;-43
2021/03/25 08:42:21;;;;;;;9.85;5.33;;;;;;;0.74;77.47;100689.84;1784899;80;21113;-43
2021/03/25 08:45:31;;;;;;;8.88;6.05;;;;;;;0.71;76.99;100687.67;1784826;80;21041;-43
2021/03/25 08:48:29;;;;;;;11.33;5.78;;;;;;;0.71;77.16;100688.10;1785003;79;21022;-43
2021/03/25 08:51:31;;;;;;;8.93;5.90;;;;;;;0.69;76.95;100688.05;1784978;80;21388;-43
2021/03/25 08:54:09;;;;;;;9.08;5.30;;;;;;;0.75;77.00;100689.91;1784870;80;20994;-43
2021/03/25 08:56:49;;;;;;;8.35;5.58;;;;;;;0.85;77.01;100689.30;1784982;80;20950;-43
2021/03/25 08:59:40;;;;;;;11.05;6.60;;;;;;;0.92;77.03;100688.20;1784992;80;20895;-43
2021/03/25 09:02:40;;;;;;;9.93;5.83;;;;;;;1.05;76.85;100694.47;1784401;80;20998;-43
2021/03/25 09:05:22;;;;;;;14.38;5.90;;;;;;;1.05;76.42;100692.76;1785051;80;22209;-44
2021/03/25 09:07:51;;;;;;;9.03;5.75;;;;;;;1.06;76.58;100693.20;1784816;80;21041;-43
2021/03/25 09:10:37;;;;;;;10.72;6.08;;;;;;;1.08;76.48;100689.00;1730519;80;20998;-44
2021/03/25 09:13:04;;;;;;;10.95;6.50;;;;;;;1.11;76.67;100692.90;1785031;80;21002;-43
2021/03/25 09:15:32;;;;;;;12.82;6.00;;;;;;;1.20;76.26;100691.42;1755214;80;20947;-43
2021/03/25 09:18:06;;;;;;;13.32;6.80;;;;;;;1.26;76.28;100689.88;1784970;80;21193;-42
2021/03/25 09:20:38;;;;;;;8.55;6.22;;;;;;;1.28;75.92;100691.17;1784940;79;20994;-43
2021/03/25 09:23:34;;;;;;;10.95;6.15;;;;;;;1.29;76.03;100687.80;1784835;80;21045;-44
2021/03/25 09:26:18;;;;;;;13.55;7.17;;;;;;;1.31;75.81;100684.87;1784822;80;21057;-44
2021/03/25 09:29:04;;;;;;;15.55;7.80;;;;;;;1.28;76.16;100686.08;1784976;80;21014;-47
2021/03/25 09:31:47;;;;;;;16.17;7.55;;;;;;;1.29;76.53;100692.50;1784918;80;21369;-46
2021/03/25 09:34:26;;;;;;;10.00;6.87;;;;;;;1.26;76.66;100685.18;1744156;80;20938;-46
2021/03/25 09:37:14;;;;;;;12.20;7.10;;;;;;;1.28;76.77;100692.45;1784966;79;21010;-46
2021/03/25 09:39:43;;;;;;;8.95;6.87;;;;;;;1.31;77.18;100685.30;1758629;80;20926;-47
2021/03/25 09:42:20;;;;;;;15.10;7.65;;;;;;;1.29;77.42;100691.63;1784921;80;20978;-47
2021/03/25 09:44:49;;;;;;;15.60;7.47;;;;;;;1.30;77.89;100690.80;1798060;79;21388;-46
2021/03/25 09:47:36;;;;;;;19.35;8.80;;;;;;;1.32;78.07;100690.84;1799991;79;20990;-46
2021/03/25 09:50:17;;;;;;;12.82;8.00;;;;;;;1.31;78.24;100692.95;1802232;78;21025;-45
2021/03/25 09:53:17;;;;;;;10.90;7.55;;;;;;;1.26;78.69;100699.21;1802243;79;20969;-44
2021/03/25 09:56:05;;;;;;;13.70;7.10;;;;;;;1.18;79.32;100695.20;1778010;78;21338;-44
2021/03/25 09:58:45;;;;;;;11.85;7.80;;;;;;;1.21;79.85;100699.09;1800077;79;22806;-45
2021/03/25 10:01:41;;;;;;;12.73;7.75;;;;;;;1.23;80.43;100693.61;1802155;78;20985;-43
2021/03/25 10:04:37;;;;;;;11.48;7.42;;;;;;;1.32;80.57;100696.80;1795742;79;20890;-44
2021/03/25 10:07:22;;;;;;;10.45;7.10;;;;;;;1.35;80.77;100696.86;1802306;79;21017;-44
2021/03/25 10:10:01;;;;;;;15.88;7.92;;;;;;;1.38;81.26;100693.53;1802351;78;21807;-42
2021/03/25 10:12:53;;;;;;;11.35;7.22;;;;;;;1.45;81.22;100685.19;1802237;78;22084;-43
2021/03/25 10:15:40;;;;;;;12.88;8.53;;;;;;;1.51;80.94;100694.67;1802143;79;21061;-45
2021/03/25 10:18:28;;;;;;;12.10;7.97;;;;;;;1.52;80.44;100693.45;1802205;78;20930;-42
2021/03/25 10:21:12;;;;;;;11.33;7.45;;;;;;;1.46;80.24;100691.16;1788423;79;21061;-45
2021/03/25 10:23:56;;;;;;;15.25;8.43;;;;;;;1.42;80.57;100692.38;1788459;80;20907;-45
2021/03/25 10:26:43;;;;;;;14.28;8.38;;;;;;;1.48;80.67;100695.88;1788527;80;21207;-43
2021/03/25 10:29:18;;;;;;;17.32;8.55;;;;;;;1.53;80.77;100694.30;1788365;80;21017;-43
2021/03/25 10:31:50;;;;;;;14.75;7.75;;;;;;;1.50;81.04;100695.08;1760511;80;20919;-44
2021/03/25 10:34:40;;;;;;;14.15;8.25;;;;;;;1.52;81.06;100692.57;1788414;80;20942;-44
2021/03/25 10:37:36;;;;;;;17.02;8.38;;;;;;;1.55;81.14;100692.23;1788596;80;21069;-45
2021/03/25 10:40:27;;;;;;;15.00;9.33;;;;;;;1.58;81.38;100691.03;1788598;80;21199;-44
2021/03/25 10:43:09;;;;;;;17.57;9.30;;;;;;;1.61;81.93;100695.75;1788199;78;20950;-45
2021/03/25 10:45:50;;;;;;;16.05;8.23;;;;;;;1.68;81.44;100694.64;1784876;79;21124;-43
2021/03/25 10:48:29;;;;;;;14.00;8.33;;;;;;;1.66;81.50;100689.92;1784831;80;21056;-43
2021/03/25 10:51:07;;;;;;;16.17;8.03;;;;;;;1.63;81.46;100691.10;1784836;80;20990;-43
2021/03/25 10:53:41;;;;;;;12.50;8.15;;;;;;;1.64;81.53;100691.98;1781662;80;22060;-43
2021/03/25 10:56:17;;;;;;;13.05;8.28;;;;;;;1.68;82.01;100688.27;1756860;80;21488;-43
2021/03/25 10:59:03;;;;;;;;;;;;;;;1.77;82.24;100688.01;1787294;79;20931;-43
2021/03/25 11:01:32;;;;;;;14.00;8.33;;;;;;;1.84;81.40;100692.41;1784853;80;20119;-43
2021/03/25 11:04:00;;;;;;;18.20;8.60;;;;;;;1.80;80.89;100682.96;1784914;80;21607;-43
2021/03/25 11:06:34;;;;;;;13.88;8.80;;;;;;;1.81;80.69;100686.84;1784841;80;21634;-43
2021/03/25 11:09:27;;;;;;;17.30;8.55;;;;;;;1.87;80.47;100683.53;1784869;80;21017;-43
2021/03/25 11:12:04;;;;;;;18.05;8.65;;;;;;;1.91;80.36;100676.80;1784807;80;21089;-43
2021/03/25 11:14:40;;;;;;;15.85;9.80;;;;;;;2.00;80.21;100673.16;1782545;80;21587;-42
2021/03/25 11:17:23;;;;;;;14.20;8.43;;;;;;;2.10;79.77;100681.86;1757822;80;20990;-43
2021/03/25 11:20:00;;;;;;;13.80;8.73;;;;;;;2.14;79.70;100681.97;1785025;80;22275;-43
2021/03/25 11:22:30;;;;;;;19.25;8.48;;;;;;;2.18;79.55;100684.17;1784764;80;21034;-43
2021/03/25 11:25:01;;;;;;;13.88;7.80;;;;;;;2.22;79.65;100684.67;1784828;80;20982;-43
2021/03/25 11:27:28;;;;;;;15.18;7.75;;;;;;;2.22;79.46;100682.13;1784495;80;21022;-43
2021/03/25 11:30:19;;;;;;;13.18;8.38;;;;;;;2.27;79.37;100680.91;1756762;80;20998;-43
2021/03/25 11:32:46;;;;;;;20.65;8.95;;;;;;;2.32;79.08;100687.40;1784665;80;22003;-43
2021/03/25 11:35:22;;;;;;;14.45;9.08;;;;;;;2.36;78.67;100680.23;1784903;80;21081;-42
2021/03/25 11:37:50;;;;;;;11.30;6.47;;;;;;;2.41;77.66;100685.04;1785288;80;20994;-43
2021/03/25 11:40:26;;;;;;;11.20;7.87;;;;;;;2.47;77.14;100681.71;1784958;79;21042;-43
2021/03/25 11:43:11;;;;;;;16.80;9.28;;;;;;;2.59;77.18;100680.67;1784974;79;21050;-43
2021/03/25 11:45:45;;;;;;;14.63;8.05;;;;;;;2.71;76.79;100678.75;1784616;80;21478;-43
2021/03/25 11:48:33;;;;;;;11.37;7.80;;;;;;;2.85;76.42;100675.16;1785200;80;20966;-43
2021/03/25 11:52:46;;;;;;;14.13;8.48;;;;;;;3.06;75.77;100666.96;1777077;79;22532;-42
2021/03/25 11:55:37;;;;;;;16.52;7.95;;;;;;;3.05;74.89;100665.23;1749497;82;21018;-43
2021/03/25 11:58:19;;;;;;;13.60;8.00;;;;;;;3.08;74.39;100661.89;1720168;82;21377;-43
2021/03/25 12:01:18;;;;;;;15.38;8.20;;;;;;;3.13;73.04;100666.65;1749375;80;20951;-44
2021/03/25 12:03:53;;;;;;;13.55;7.85;;;;;;;3.16;73.13;100662.85;1749370;82;20983;-43
2021/03/25 12:06:26;;;;;;;11.78;8.20;;;;;;;3.20;72.63;100666.33;1749577;82;26667;-42
2021/03/25 12:09:12;;;;;;;14.75;8.30;;;;;;;3.26;72.75;100663.86;1749560;81;21610;-43
2021/03/25 12:11:46;;;;;;;12.18;8.50;;;;;;;3.35;72.54;100665.70;1749459;81;21030;-43
2021/03/25 12:14:17;;;;;;;16.85;9.00;;;;;;;3.41;72.61;100664.50;1749423;81;21006;-44
2021/03/25 12:16:58;;;;;;;14.23;8.38;;;;;;;3.52;72.27;100662.09;1749360;82;20912;-43
2021/03/25 12:19:32;;;;;;;18.27;8.63;;;;;;;3.63;71.72;100660.53;1745465;82;21014;-42
2021/03/25 12:22:04;;;;;;;11.50;8.40;;;;;;;3.69;71.04;100664.47;1719465;82;21065;-43
2021/03/25 12:24:33;;;;;;;13.70;8.63;;;;;;;3.76;71.03;100661.55;1749524;80;21564;-43